Time;durP1;ratioP1;P1;durP2;ratioP2;P2;SDS_P1;SDS_P2;PMS_P1;PMS_P2;Temp;Humidity;BMP_temperature;BMP_pressure;BME280_temperature;BME280_humidity;BME280_pressure;Samples;Min_cycle;Max_cycle;Signal;HPM_P1;HPM_P2
2022/12/18 00:02:03;;;;;;;86.03;27.17;;;;;;;;;;6208275;23;20123;-55
2022/12/18 00:04:30;;;;;;;86.78;31.08;;;;;;;;;;6207996;23;20036;-53
2022/12/18 00:07:04;;;;;;;90.80;31.10;;;;;;;;;;6208471;23;20027;-51
2022/12/18 00:09:31;;;;;;;99.65;32.97;;;;;;;;;;6208737;23;20028;-55
2022/12/18 00:12:07;;;;;;;100.72;30.88;;;;;;;;;;6207660;23;20048;-54
2022/12/18 00:14:44;;;;;;;90.60;29.10;;;;;;;;;;6207574;23;20480;-55
2022/12/18 13:51:55;;;;;;;44.75;10.35;;;;;;;;;;5824660;22;9238922;-48
2022/12/18 13:54:35;;;;;;;40.70;8.65;;;;;;;;;;6179901;23;20028;-51
2022/12/18 13:57:32;;;;;;;36.35;8.55;;;;;;;;;;6193350;22;20021;-66
2022/12/18 14:00:19;;;;;;;37.03;8.77;;;;;;;;;;6192032;23;20070;-66
2022/12/18 14:02:46;;;;;;;37.97;8.70;;;;;;;;;;6208484;23;20020;-67
2022/12/18 14:05:29;;;;;;;42.67;10.32;;;;;;;;;;6208523;23;20028;-67
2022/12/18 14:08:01;;;;;;;49.60;9.75;;;;;;;;;;6202950;23;20024;-66
2022/12/18 14:10:35;;;;;;;41.28;10.20;;;;;;;;;;6209176;23;20360;-66
2022/12/18 14:13:18;;;;;;;53.00;11.00;;;;;;;;;;6208686;23;20100;-60
2022/12/18 14:15:52;;;;;;;41.17;10.85;;;;;;;;;;6208734;23;20031;-56
2022/12/18 14:18:23;;;;;;;42.72;11.07;;;;;;;;;;6209456;23;20024;-56
2022/12/18 14:21:01;;;;;;;41.65;10.18;;;;;;;;;;6207859;23;20024;-54
2022/12/18 14:23:42;;;;;;;52.67;11.35;;;;;;;;;;6208900;23;20030;-49
2022/12/18 14:26:25;;;;;;;52.17;11.15;;;;;;;;;;6210407;23;20056;-49
2022/12/18 14:28:53;;;;;;;51.70;11.82;;;;;;;;;;6208063;23;20027;-52
2022/12/18 14:31:28;;;;;;;55.88;12.52;;;;;;;;;;6209002;23;20103;-52
2022/12/18 14:34:03;;;;;;;49.72;12.55;;;;;;;;;;6205911;23;20214;-61
2022/12/18 14:36:30;;;;;;;51.33;13.73;;;;;;;;;;6209721;23;20091;-61
2022/12/18 14:39:04;;;;;;;51.60;13.65;;;;;;;;;;6209255;23;20460;-61
2022/12/18 14:41:32;;;;;;;43.08;12.60;;;;;;;;;;6210348;23;20055;-61
2022/12/18 14:44:11;;;;;;;57.28;13.13;;;;;;;;;;6207483;23;20095;-60
2022/12/18 14:46:42;;;;;;;54.47;13.57;;;;;;;;;;6210140;23;20024;-61
2022/12/18 14:49:32;;;;;;;49.90;13.23;;;;;;;;;;6209217;23;20031;-64
2022/12/18 14:52:07;;;;;;;40.55;11.43;;;;;;;;;;6208669;23;20735;-46
2022/12/18 14:54:46;;;;;;;53.90;12.15;;;;;;;;;;6183203;23;20342;-47
2022/12/18 14:57:33;;;;;;;55.08;13.45;;;;;;;;;;6209027;23;20025;-47
2022/12/18 15:00:08;;;;;;;37.72;12.32;;;;;;;;;;6203443;23;20386;-48
2022/12/18 15:02:42;;;;;;;52.17;12.43;;;;;;;;;;6204245;23;20491;-49
2022/12/18 15:05:13;;;;;;;50.97;11.52;;;;;;;;;;6201612;23;20056;-50
2022/12/18 15:07:51;;;;;;;47.90;11.57;;;;;;;;;;6207834;23;20027;-62
2022/12/18 15:10:19;;;;;;;48.50;12.27;;;;;;;;;;6208777;23;20025;-63
2022/12/18 15:12:46;;;;;;;48.92;12.00;;;;;;;;;;6207091;23;20059;-62
2022/12/18 15:15:33;;;;;;;44.25;11.90;;;;;;;;;;6206926;23;20024;-63
2022/12/18 15:18:01;;;;;;;48.00;11.95;;;;;;;;;;6208429;23;20024;-63
2022/12/18 15:20:41;;;;;;;45.10;11.73;;;;;;;;;;6207207;23;20028;-63
2022/12/18 15:23:31;;;;;;;62.58;13.95;;;;;;;;;;6207035;23;20023;-62
2022/12/18 15:26:06;;;;;;;68.38;14.80;;;;;;;;;;6198979;23;20108;-64
2022/12/18 15:28:45;;;;;;;62.80;13.82;;;;;;;;;;6207413;23;20469;-61
2022/12/18 15:31:34;;;;;;;52.83;12.38;;;;;;;;;;6208425;23;20357;-60
2022/12/18 15:34:26;;;;;;;65.28;14.90;;;;;;;;;;6206402;23;20558;-60
2022/12/18 15:37:00;;;;;;;52.80;12.67;;;;;;;;;;6175363;23;20111;-60
2022/12/18 15:39:27;;;;;;;56.38;12.63;;;;;;;;;;6209156;23;20027;-60
2022/12/18 15:44:48;;;;;;;47.78;12.82;;;;;;;;;;6208779;23;20030;-55
2022/12/18 15:47:15;;;;;;;63.35;15.27;;;;;;;;;;6208824;23;20096;-60
2022/12/18 15:49:42;;;;;;;55.72;15.60;;;;;;;;;;6208381;23;20111;-60
2022/12/18 15:52:25;;;;;;;59.08;14.73;;;;;;;;;;6206217;23;20025;-60
2022/12/18 15:57:51;;;;;;;61.65;16.85;;;;;;;;;;6204520;23;20356;-60
2022/12/18 16:00:26;;;;;;;67.30;13.77;;;;;;;;;;6203893;23;20424;-60
2022/12/18 16:03:00;;;;;;;50.45;14.43;;;;;;;;;;6206862;23;20099;-59
2022/12/18 16:05:27;;;;;;;;;;;;;;;;;;6208313;23;20059;-59
2022/12/18 16:07:54;;;;;;;55.10;16.80;;;;;;;;;;6207359;23;19920;-59
2022/12/18 16:10:28;;;;;;;77.35;22.65;;;;;;;;;;6207968;23;20020;-59
2022/12/18 16:13:01;;;;;;;64.00;17.83;;;;;;;;;;6208598;23;20103;-59
2022/12/18 16:15:36;;;;;;;65.82;19.20;;;;;;;;;;6207789;23;20091;-57
2022/12/18 16:18:03;;;;;;;59.95;16.25;;;;;;;;;;6209417;23;20024;-59
2022/12/18 16:20:38;;;;;;;51.10;15.40;;;;;;;;;;6208340;23;20016;-66
2022/12/18 16:23:05;;;;;;;63.75;15.82;;;;;;;;;;6209974;23;20051;-63
2022/12/18 16:25:33;;;;;;;56.58;15.80;;;;;;;;;;6208570;23;20339;-63
2022/12/18 16:28:07;;;;;;;63.30;17.08;;;;;;;;;;6207389;23;20028;-62
2022/12/18 16:30:34;;;;;;;60.38;19.67;;;;;;;;;;6208096;23;20067;-63
2022/12/18 16:33:09;;;;;;;76.75;19.15;;;;;;;;;;6207733;23;20020;-62
2022/12/18 16:35:36;;;;;;;66.85;19.85;;;;;;;;;;6205420;23;20064;-63
2022/12/18 16:38:04;;;;;;;66.43;20.02;;;;;;;;;;6207106;23;20031;-63
2022/12/18 16:41:30;;;;;;;66.55;25.05;;;;;;;;;;6207371;23;20032;-60
2022/12/18 16:43:25;;;;;;;67.68;21.42;;;;;;;;;;6207379;23;20130;-60
2022/12/18 16:45:59;;;;;;;69.03;21.73;;;;;;;;;;6207910;23;20311;-59
2022/12/18 16:48:26;;;;;;;;;;;;;;;;;;6206119;23;20024;-60
2022/12/18 16:51:04;;;;;;;81.13;26.48;;;;;;;;;;6207103;23;19995;-60
2022/12/18 16:53:33;;;;;;;84.30;24.95;;;;;;;;;;6207254;23;20419;-60
2022/12/18 16:56:08;;;;;;;115.78;30.08;;;;;;;;;;6207658;23;20027;-60
2022/12/18 16:58:41;;;;;;;100.38;32.25;;;;;;;;;;6207906;23;20032;-50
2022/12/18 17:01:15;;;;;;;117.88;42.97;;;;;;;;;;6207109;23;20549;-47
2022/12/18 17:03:42;;;;;;;123.25;30.77;;;;;;;;;;6205373;23;20495;-49
2022/12/18 17:06:12;;;;;;;127.55;30.85;;;;;;;;;;6208524;23;20025;-48
2022/12/18 17:08:46;;;;;;;131.00;33.88;;;;;;;;;;6206900;23;20393;-51
2022/12/18 17:11:13;;;;;;;207.10;65.53;;;;;;;;;;6179264;23;20136;-52
2022/12/18 17:13:47;;;;;;;160.38;46.33;;;;;;;;;;6205803;23;20047;-49
2022/12/18 17:16:14;;;;;;;152.95;40.55;;;;;;;;;;6200768;23;20405;-63
2022/12/18 17:18:48;;;;;;;164.07;37.10;;;;;;;;;;6204539;23;20023;-66
2022/12/18 17:21:15;;;;;;;191.10;39.05;;;;;;;;;;6205640;23;20024;-51
2022/12/18 17:23:43;;;;;;;226.13;42.58;;;;;;;;;;6205422;23;20024;-52
2022/12/18 17:26:17;;;;;;;241.30;42.33;;;;;;;;;;6203039;23;20488;-49
2022/12/18 17:28:44;;;;;;;189.95;41.65;;;;;;;;;;6207134;23;20017;-53
2022/12/18 17:31:19;;;;;;;169.40;38.63;;;;;;;;;;6205332;23;20116;-52
2022/12/18 17:33:46;;;;;;;240.20;44.33;;;;;;;;;;6205567;23;20091;-52
2022/12/18 17:36:14;;;;;;;337.55;50.08;;;;;;;;;;6203377;23;20024;-60
2022/12/18 17:38:52;;;;;;;242.35;44.20;;;;;;;;;;6203298;23;20354;-60
2022/12/18 17:41:19;;;;;;;244.98;46.67;;;;;;;;;;6205442;23;20254;-60
2022/12/18 17:44:00;;;;;;;260.63;44.55;;;;;;;;;;6206132;23;20020;-60
2022/12/18 17:46:29;;;;;;;346.48;53.50;;;;;;;;;;6205054;23;20028;-61
2022/12/18 17:49:03;;;;;;;273.67;48.10;;;;;;;;;;6204806;23;20030;-60
2022/12/18 17:51:30;;;;;;;270.13;47.45;;;;;;;;;;6204809;23;20460;-60
2022/12/18 17:53:57;;;;;;;219.10;44.45;;;;;;;;;;6205352;23;20024;-61
2022/12/18 17:56:31;;;;;;;263.52;50.53;;;;;;;;;;6205032;23;20035;-63
2022/12/18 17:59:05;;;;;;;234.02;46.83;;;;;;;;;;6205978;23;20334;-63
2022/12/18 18:01:45;;;;;;;284.20;45.70;;;;;;;;;;6207103;23;20028;-63
2022/12/18 18:04:13;;;;;;;266.15;47.95;;;;;;;;;;6206877;23;20025;-63
2022/12/18 18:06:47;;;;;;;299.17;50.10;;;;;;;;;;6205352;23;20099;-63
2022/12/18 18:09:14;;;;;;;330.50;48.95;;;;;;;;;;6207233;23;20095;-63
2022/12/18 18:14:36;;;;;;;306.83;53.33;;;;;;;;;;6203663;23;20025;-59
2022/12/18 18:17:04;;;;;;;321.67;51.00;;;;;;;;;;6204252;23;20490;-59
2022/12/18 18:19:32;;;;;;;321.08;59.47;;;;;;;;;;6205134;23;20107;-59
2022/12/18 18:22:06;;;;;;;362.48;57.03;;;;;;;;;;6203550;23;20033;-59
2022/12/18 18:24:34;;;;;;;450.88;57.75;;;;;;;;;;6204235;23;20071;-57
2022/12/18 18:27:08;;;;;;;341.08;52.47;;;;;;;;;;6202864;23;20556;-59
2022/12/18 18:29:35;;;;;;;463.95;59.35;;;;;;;;;;6203897;23;20461;-49
2022/12/18 18:32:02;;;;;;;599.35;72.75;;;;;;;;;;6204671;23;20104;-60
2022/12/18 18:34:39;;;;;;;490.45;61.58;;;;;;;;;;6205031;23;20078;-50
2022/12/18 18:37:06;;;;;;;475.90;60.60;;;;;;;;;;6202321;23;20401;-49
2022/12/18 18:39:40;;;;;;;481.20;65.40;;;;;;;;;;6203742;23;20067;-49
2022/12/18 18:42:07;;;;;;;475.20;58.83;;;;;;;;;;6205523;23;20024;-50
2022/12/18 18:44:34;;;;;;;571.83;65.57;;;;;;;;;;6205276;23;20080;-47
2022/12/18 18:47:14;;;;;;;500.10;60.35;;;;;;;;;;6205029;23;20029;-50
2022/12/18 18:49:42;;;;;;;490.10;61.45;;;;;;;;;;6205271;23;20050;-63
2022/12/18 18:52:16;;;;;;;603.97;65.03;;;;;;;;;;6180855;23;20104;-63
2022/12/18 18:54:43;;;;;;;442.73;59.78;;;;;;;;;;6204731;23;20100;-63
2022/12/18 18:57:30;;;;;;;480.85;58.53;;;;;;;;;;6204247;23;20473;-63
2022/12/18 19:00:11;;;;;;;509.30;60.72;;;;;;;;;;6204715;23;20210;-64
2022/12/18 19:02:38;;;;;;;609.03;70.13;;;;;;;;;;6205159;23;20028;-63
2022/12/18 19:05:12;;;;;;;436.15;59.33;;;;;;;;;;6205417;23;20083;-63
2022/12/18 19:07:39;;;;;;;617.42;72.53;;;;;;;;;;6204531;23;20143;-61
2022/12/18 19:10:13;;;;;;;661.78;75.75;;;;;;;;;;6203674;23;20031;-60
2022/12/18 19:15:33;;;;;;;601.97;70.72;;;;;;;;;;6204596;23;20099;-61
2022/12/18 19:18:00;;;;;;;471.80;63.65;;;;;;;;;;6203375;23;20024;-61
2022/12/18 19:20:28;;;;;;;531.75;65.97;;;;;;;;;;6204922;23;20024;-61
2022/12/18 19:23:02;;;;;;;501.77;63.88;;;;;;;;;;6180083;23;20026;-60
2022/12/18 19:25:31;;;;;;;347.77;57.92;;;;;;;;;;6205376;23;20492;-49
2022/12/18 19:28:09;;;;;;;494.55;67.38;;;;;;;;;;6205622;23;20108;-63
2022/12/18 19:30:47;;;;;;;483.48;66.85;;;;;;;;;;6205357;23;20025;-63
2022/12/18 19:33:26;;;;;;;435.33;64.05;;;;;;;;;;6205011;23;20024;-63
2022/12/18 19:36:10;;;;;;;477.20;76.55;;;;;;;;;;6202984;23;20353;-63
2022/12/18 19:38:44;;;;;;;539.92;72.80;;;;;;;;;;6204416;23;20028;-63
2022/12/18 19:41:13;;;;;;;497.55;69.57;;;;;;;;;;6205875;23;20021;-63
2022/12/18 19:43:40;;;;;;;493.15;70.60;;;;;;;;;;6204583;23;20031;-54
2022/12/18 19:46:15;;;;;;;436.00;69.43;;;;;;;;;;6205203;23;20029;-63
2022/12/18 19:48:43;;;;;;;420.05;68.10;;;;;;;;;;6205566;23;20025;-63
2022/12/18 19:51:18;;;;;;;344.30;60.90;;;;;;;;;;6203919;23;20046;-63
2022/12/18 19:53:46;;;;;;;410.08;63.78;;;;;;;;;;6204663;23;20067;-63
2022/12/18 19:56:15;;;;;;;423.45;64.95;;;;;;;;;;6204935;23;20027;-63
2022/12/18 19:58:55;;;;;;;334.13;61.75;;;;;;;;;;6204949;23;20021;-64
2022/12/18 20:01:23;;;;;;;391.67;65.15;;;;;;;;;;6177709;23;20048;-59
2022/12/18 20:03:57;;;;;;;370.38;64.47;;;;;;;;;;6203926;23;20055;-60
2022/12/18 20:06:28;;;;;;;332.17;54.58;;;;;;;;;;6204561;23;20461;-60
2022/12/18 20:08:57;;;;;;;402.45;62.55;;;;;;;;;;6204369;23;20085;-61
2022/12/18 20:11:32;;;;;;;435.08;67.13;;;;;;;;;;6203746;23;20339;-60
2022/12/18 20:14:03;;;;;;;420.40;66.43;;;;;;;;;;6204308;23;20024;-60
2022/12/18 20:16:37;;;;;;;375.55;61.03;;;;;;;;;;6204310;23;20111;-60
2022/12/18 20:19:05;;;;;;;398.80;65.57;;;;;;;;;;6206278;23;20024;-60
2022/12/18 20:21:32;;;;;;;375.48;62.47;;;;;;;;;;6205991;23;20065;-59
2022/12/18 20:24:07;;;;;;;362.75;75.55;;;;;;;;;;6204706;23;20096;-60
2022/12/18 20:26:34;;;;;;;310.52;66.50;;;;;;;;;;6204685;23;20082;-60
2022/12/18 20:29:01;;;;;;;306.98;56.55;;;;;;;;;;6205141;23;20111;-60
2022/12/18 20:31:35;;;;;;;296.48;58.30;;;;;;;;;;6203908;23;20024;-60
2022/12/18 20:34:03;;;;;;;278.95;54.15;;;;;;;;;;6203702;23;20021;-60
2022/12/18 20:36:44;;;;;;;286.02;53.95;;;;;;;;;;6202895;23;20031;-61
2022/12/18 20:39:18;;;;;;;247.20;50.83;;;;;;;;;;6201854;23;20047;-56
2022/12/18 20:41:54;;;;;;;273.58;50.83;;;;;;;;;;6204967;23;20454;-59
2022/12/18 20:44:22;;;;;;;281.67;54.60;;;;;;;;;;6205459;23;20108;-59
2022/12/18 20:46:59;;;;;;;239.10;49.05;;;;;;;;;;6205471;23;20116;-57
2022/12/18 20:49:30;;;;;;;249.95;52.17;;;;;;;;;;6205290;23;20358;-60
2022/12/18 20:52:07;;;;;;;260.30;55.03;;;;;;;;;;6204744;23;20078;-59
2022/12/18 20:54:34;;;;;;;;;;;;;;;;;;6205684;23;20135;-59
2022/12/18 20:57:01;;;;;;;237.13;48.30;;;;;;;;;;6179501;23;19926;-52
2022/12/18 20:59:42;;;;;;;271.52;53.97;;;;;;;;;;6204945;23;20059;-63
2022/12/18 21:02:14;;;;;;;269.48;52.47;;;;;;;;;;6205469;23;20111;-64
2022/12/18 21:04:48;;;;;;;268.52;52.50;;;;;;;;;;6205180;23;20531;-63
2022/12/18 21:07:16;;;;;;;268.08;53.28;;;;;;;;;;6207690;23;20032;-65
2022/12/18 21:09:50;;;;;;;267.98;53.15;;;;;;;;;;6206330;23;20103;-64
2022/12/18 21:12:40;;;;;;;260.52;53.95;;;;;;;;;;6180047;23;20029;-64
2022/12/18 21:15:29;;;;;;;236.02;52.38;;;;;;;;;;6183177;23;20024;-62
2022/12/18 21:18:03;;;;;;;210.65;50.17;;;;;;;;;;6205280;23;20401;-60
2022/12/18 21:20:37;;;;;;;200.10;53.05;;;;;;;;;;6207048;23;20029;-60
2022/12/18 21:23:11;;;;;;;195.98;50.55;;;;;;;;;;6205959;23;20131;-60
2022/12/18 21:25:43;;;;;;;176.30;48.13;;;;;;;;;;6207048;23;20528;-61
2022/12/18 21:28:14;;;;;;;158.63;46.00;;;;;;;;;;6209599;23;20096;-60
2022/12/18 21:30:49;;;;;;;143.85;43.80;;;;;;;;;;6207149;23;20071;-60
2022/12/18 21:33:16;;;;;;;133.85;41.75;;;;;;;;;;6209014;23;20052;-56
2022/12/18 21:35:50;;;;;;;130.32;39.03;;;;;;;;;;6208146;23;20103;-62
2022/12/18 21:38:17;;;;;;;112.47;39.22;;;;;;;;;;6208676;23;20044;-49
2022/12/18 21:40:51;;;;;;;135.80;41.17;;;;;;;;;;6208031;23;20025;-49
2022/12/18 21:46:11;;;;;;;141.85;39.72;;;;;;;;;;6208367;23;20447;-47
2022/12/18 21:48:39;;;;;;;114.85;35.10;;;;;;;;;;6209063;23;20086;-50
2022/12/18 21:51:06;;;;;;;109.13;32.33;;;;;;;;;;6210124;23;20031;-51
2022/12/18 21:53:40;;;;;;;94.53;30.55;;;;;;;;;;6208965;23;20103;-51
2022/12/18 21:56:07;;;;;;;98.60;31.02;;;;;;;;;;6209398;23;20100;-63
2022/12/18 21:58:48;;;;;;;87.20;28.85;;;;;;;;;;6209433;23;20553;-62
2022/12/18 22:01:23;;;;;;;77.10;25.90;;;;;;;;;;6209145;23;20453;-62
2022/12/18 22:04:04;;;;;;;94.13;27.95;;;;;;;;;;6208028;23;20104;-63
2022/12/18 22:06:31;;;;;;;85.13;26.63;;;;;;;;;;6208622;23;20021;-62
2022/12/18 22:09:05;;;;;;;83.75;25.20;;;;;;;;;;6206858;23;20556;-62
2022/12/18 22:11:32;;;;;;;;;;;;;;;;;;6210208;23;20023;-52
2022/12/18 22:14:00;;;;;;;72.63;21.88;;;;;;;;;;6207874;23;19947;-54
2022/12/18 22:16:34;;;;;;;74.57;23.17;;;;;;;;;;6208658;23;20055;-50
2022/12/18 22:19:02;;;;;;;59.30;18.50;;;;;;;;;;6208082;23;20024;-51
2022/12/18 22:21:37;;;;;;;60.78;20.77;;;;;;;;;;6206885;23;20111;-49
2022/12/18 22:24:06;;;;;;;56.08;19.15;;;;;;;;;;6207967;23;20020;-50
2022/12/18 22:26:34;;;;;;;54.95;18.00;;;;;;;;;;6209666;23;20064;-52
2022/12/18 22:32:05;;;;;;;58.45;17.63;;;;;;;;;;6208358;23;20391;-57
2022/12/18 22:34:41;;;;;;;64.95;18.70;;;;;;;;;;6208478;23;20458;-59
2022/12/18 22:37:15;;;;;;;62.35;17.13;;;;;;;;;;6208213;23;20024;-58
2022/12/18 22:39:42;;;;;;;54.40;17.55;;;;;;;;;;6206768;23;20023;-58
2022/12/18 22:42:16;;;;;;;44.53;16.70;;;;;;;;;;6208448;23;20116;-57
2022/12/18 22:44:43;;;;;;;61.03;17.00;;;;;;;;;;6207831;23;20020;-58
2022/12/18 22:47:17;;;;;;;52.05;16.55;;;;;;;;;;6207875;23;20092;-62
2022/12/18 22:49:44;;;;;;;55.63;15.70;;;;;;;;;;6208340;23;20099;-47
2022/12/18 22:52:11;;;;;;;51.40;15.57;;;;;;;;;;6208483;23;20282;-46
2022/12/18 22:54:48;;;;;;;57.13;14.75;;;;;;;;;;6208029;23;20100;-50
2022/12/18 22:57:15;;;;;;;55.55;14.00;;;;;;;;;;6209219;23;20096;-47
2022/12/18 22:59:42;;;;;;;47.40;13.77;;;;;;;;;;6206570;23;20021;-46
2022/12/18 23:02:16;;;;;;;48.08;14.13;;;;;;;;;;6208729;23;20032;-46
2022/12/18 23:04:44;;;;;;;50.97;13.55;;;;;;;;;;6207844;23;20031;-61
2022/12/18 23:07:11;;;;;;;;;;;;;;;;;;6207745;23;20103;-60
2022/12/18 23:09:45;;;;;;;46.33;13.30;;;;;;;;;;6208201;23;20320;-60
2022/12/18 23:12:18;;;;;;;40.45;13.13;;;;;;;;;;6182014;23;20029;-60
2022/12/18 23:14:52;;;;;;;45.97;13.73;;;;;;;;;;6208115;23;20119;-61
2022/12/18 23:17:19;;;;;;;50.10;13.13;;;;;;;;;;6208468;23;20099;-60
2022/12/18 23:19:46;;;;;;;43.83;14.02;;;;;;;;;;6207659;23;20403;-60
2022/12/18 23:22:20;;;;;;;40.00;13.05;;;;;;;;;;6207793;23;20035;-60
2022/12/18 23:24:47;;;;;;;40.30;13.05;;;;;;;;;;6207269;23;20020;-60
2022/12/18 23:27:21;;;;;;;34.03;12.20;;;;;;;;;;6208768;23;20099;-47
2022/12/18 23:29:48;;;;;;;41.15;13.27;;;;;;;;;;6207811;23;20017;-49
2022/12/18 23:32:24;;;;;;;38.33;13.18;;;;;;;;;;6207829;23;20052;-48
2022/12/18 23:34:51;;;;;;;37.63;12.95;;;;;;;;;;6208853;23;20021;-46
2022/12/18 23:37:18;;;;;;;32.70;12.20;;;;;;;;;;6206636;23;20028;-46
2022/12/18 23:40:12;;;;;;;44.63;12.73;;;;;;;;;;6187282;23;20024;-48
2022/12/18 23:42:39;;;;;;;43.53;11.52;;;;;;;;;;6180772;23;20059;-50
2022/12/18 23:45:14;;;;;;;32.67;12.27;;;;;;;;;;6208490;23;20021;-50
2022/12/18 23:47:43;;;;;;;32.22;11.73;;;;;;;;;;6207247;23;20059;-48
2022/12/18 23:50:13;;;;;;;31.92;10.90;;;;;;;;;;6207290;23;20017;-49
2022/12/18 23:52:55;;;;;;;33.70;12.73;;;;;;;;;;6207985;23;20020;-53
2022/12/18 23:55:24;;;;;;;29.38;11.73;;;;;;;;;;6208744;23;20478;-46
2022/12/18 23:58:11;;;;;;;34.33;12.75;;;;;;;;;;6206544;23;20032;-48
